createdAt,value
2023-03-11T00:01:11.786Z,0.70
2023-03-11T00:03:41.642Z,0.70
2023-03-11T00:06:09.837Z,0.70
2023-03-11T00:08:37.990Z,0.60
2023-03-11T00:11:06.340Z,0.70
2023-03-11T00:13:36.862Z,0.70
2023-03-11T00:16:05.720Z,0.70
2023-03-11T00:18:34.008Z,0.80
2023-03-11T00:21:03.812Z,0.70
2023-03-11T00:23:32.672Z,0.70
2023-03-11T00:26:03.154Z,0.70
2023-03-11T00:28:34.149Z,0.60
2023-03-11T00:31:03.728Z,0.50
2023-03-11T00:33:32.389Z,0.50
2023-03-11T00:36:01.302Z,0.50
2023-03-11T00:38:31.171Z,0.50
2023-03-11T00:41:02.657Z,0.60
2023-03-11T00:43:36.040Z,0.50
2023-03-11T00:46:06.146Z,0.50
2023-03-11T00:48:34.400Z,0.50
2023-03-11T00:51:02.980Z,0.50
2023-03-11T00:53:32.466Z,0.50
2023-03-11T00:56:01.367Z,0.60
2023-03-11T00:58:30.770Z,0.50
2023-03-11T01:00:59.040Z,0.60
2023-03-11T01:03:27.303Z,0.60
2023-03-11T01:05:55.430Z,0.50
2023-03-11T01:08:23.621Z,0.50
2023-03-11T01:10:53.967Z,0.50
2023-03-11T01:13:22.201Z,0.40
2023-03-11T01:15:50.701Z,0.30
2023-03-11T01:18:20.370Z,0.40
2023-03-11T01:20:49.494Z,0.50
2023-03-11T01:23:18.913Z,0.50
2023-03-11T01:25:47.691Z,0.30
2023-03-11T01:28:17.543Z,0.40
2023-03-11T01:30:46.117Z,0.40
2023-03-11T01:33:18.075Z,0.40
2023-03-11T01:35:47.328Z,0.40
2023-03-11T01:38:16.017Z,0.40
2023-03-11T01:40:49.267Z,0.40
2023-03-11T01:43:40.672Z,0.40
2023-03-11T01:46:16.059Z,0.30
2023-03-11T01:48:47.971Z,0.20
2023-03-11T01:51:18.225Z,0.30
2023-03-11T01:53:50.038Z,0.30
2023-03-11T01:56:19.274Z,0.30
2023-03-11T01:58:52.314Z,0.20
2023-03-11T02:01:22.082Z,0.30
2023-03-11T02:03:50.969Z,0.30
2023-03-11T02:06:22.397Z,0.30
2023-03-11T02:08:52.849Z,0.30
2023-03-11T02:11:24.742Z,0.30
2023-03-11T02:13:58.719Z,0.20
2023-03-11T02:16:27.154Z,0.20
2023-03-11T02:18:55.458Z,0.30
2023-03-11T02:21:27.450Z,0.20
2023-03-11T02:24:04.059Z,0.30
2023-03-11T02:26:38.610Z,0.30
2023-03-11T02:29:10.656Z,0.20
2023-03-11T02:31:43.010Z,0.20
2023-03-11T02:34:17.284Z,0.10
2023-03-11T02:36:45.658Z,0.20
2023-03-11T02:39:14.466Z,0.30
2023-03-11T02:41:47.007Z,0.20
2023-03-11T02:44:17.571Z,0.30
2023-03-11T02:46:47.262Z,0.30
2023-03-11T02:49:16.619Z,0.30
2023-03-11T02:51:44.909Z,0.20
2023-03-11T02:54:13.497Z,0.20
2023-03-11T02:56:41.659Z,0.10
2023-03-11T02:59:09.898Z,0.20
2023-03-11T03:01:39.989Z,0.20
2023-03-11T03:04:08.265Z,0.20
2023-03-11T03:06:36.981Z,0.10
2023-03-11T03:09:05.641Z,0.00
2023-03-11T03:11:34.518Z,0.10
2023-03-11T03:14:03.458Z,0.10
2023-03-11T03:16:32.246Z,0.10
2023-03-11T03:19:01.978Z,0.10
2023-03-11T03:21:30.214Z,0.00
2023-03-11T03:23:59.185Z,0.00
2023-03-11T03:26:27.544Z,0.00
2023-03-11T03:28:55.794Z,0.10
2023-03-11T03:31:24.155Z,0.10
2023-03-11T03:33:52.580Z,0.10
2023-03-11T03:36:22.388Z,0.20
2023-03-11T03:39:06.288Z,0.20
2023-03-11T03:41:34.888Z,0.20
2023-03-11T03:44:03.559Z,0.20
2023-03-11T03:46:32.368Z,0.20
2023-03-11T03:49:00.546Z,0.30
2023-03-11T03:51:29.255Z,0.30
2023-03-11T03:54:00.488Z,0.20
2023-03-11T03:56:30.046Z,0.30
2023-03-11T03:58:58.380Z,0.20
2023-03-11T04:01:26.504Z,0.10
2023-03-11T04:03:54.637Z,0.10
2023-03-11T04:06:26.177Z,0.20
2023-03-11T04:08:55.364Z,0.20
2023-03-11T04:11:23.693Z,0.10
2023-03-11T04:13:53.272Z,0.20
2023-03-11T04:16:23.662Z,0.20
2023-03-11T04:18:52.397Z,0.10
2023-03-11T04:21:20.803Z,0.10
2023-03-11T04:23:49.067Z,0.00
2023-03-11T04:26:17.357Z,0.00
2023-03-11T04:28:45.912Z,-0.10
2023-03-11T04:31:15.555Z,-0.20
2023-03-11T04:33:43.934Z,-0.20
2023-03-11T04:36:13.397Z,-0.20
2023-03-11T04:38:45.765Z,-0.20
2023-03-11T04:41:13.958Z,-0.20
2023-03-11T04:43:42.177Z,-0.10
2023-03-11T04:46:10.485Z,-0.10
2023-03-11T04:48:40.150Z,0.00
2023-03-11T04:51:08.583Z,-0.10
2023-03-11T04:53:37.071Z,-0.10
2023-03-11T04:56:05.600Z,-0.20
2023-03-11T04:58:34.020Z,-0.20
2023-03-11T05:01:02.269Z,-0.10
2023-03-11T05:03:30.618Z,-0.10
2023-03-11T05:06:00.364Z,-0.10
2023-03-11T05:08:29.151Z,-0.10
2023-03-11T05:10:57.561Z,-0.10
2023-03-11T05:13:25.744Z,-0.10
2023-03-11T05:15:54.347Z,-0.10
2023-03-11T05:18:22.776Z,0.00
2023-03-11T05:20:50.984Z,0.00
2023-03-11T05:23:20.802Z,0.00
2023-03-11T05:25:49.086Z,0.00
2023-03-11T05:28:17.298Z,0.00
2023-03-11T05:30:45.398Z,0.00
2023-03-11T05:33:13.608Z,-0.20
2023-03-11T05:35:42.867Z,-0.10
2023-03-11T05:38:11.106Z,0.00
2023-03-11T05:40:40.628Z,0.00
2023-03-11T05:43:09.075Z,-0.10
2023-03-11T05:45:37.686Z,-0.10
2023-03-11T05:48:05.945Z,-0.10
2023-03-11T05:50:34.145Z,-0.10
2023-03-11T05:53:02.279Z,-0.10
2023-03-11T05:55:30.606Z,-0.10
2023-03-11T05:58:00.219Z,-0.10
2023-03-11T06:00:29.510Z,-0.20
2023-03-11T06:02:57.711Z,-0.20
2023-03-11T06:05:26.244Z,-0.10
2023-03-11T06:07:54.532Z,-0.10
2023-03-11T06:10:23.046Z,0.10
2023-03-11T06:12:51.182Z,0.00
2023-03-11T06:15:20.866Z,0.00
2023-03-11T06:17:49.020Z,-0.10
2023-03-11T06:20:17.621Z,-0.10
2023-03-11T06:22:45.982Z,-0.10
2023-03-11T06:25:14.305Z,0.00
2023-03-11T06:27:44.537Z,-0.20
2023-03-11T06:30:13.946Z,-0.30
2023-03-11T06:32:45.084Z,-0.10
2023-03-11T06:35:13.708Z,-0.10
2023-03-11T06:37:42.454Z,-0.10
2023-03-11T06:40:14.059Z,-0.10
2023-03-11T06:42:42.480Z,-0.10
2023-03-11T06:45:11.627Z,-0.10
2023-03-11T06:47:40.830Z,0.00
2023-03-11T06:50:11.332Z,0.10
2023-03-11T06:52:39.484Z,0.10
2023-03-11T06:55:11.236Z,0.00
2023-03-11T06:57:39.472Z,0.00
2023-03-11T07:00:13.435Z,-0.10
2023-03-11T07:02:41.617Z,0.00
2023-03-11T07:05:12.552Z,0.10
2023-03-11T07:07:40.884Z,0.10
2023-03-11T07:10:09.999Z,0.10
2023-03-11T07:12:41.577Z,0.10
2023-03-11T07:15:10.985Z,0.10
2023-03-11T07:17:39.423Z,0.10
2023-03-11T07:20:09.198Z,0.10
2023-03-11T07:22:38.955Z,0.20
2023-03-11T07:25:07.698Z,0.20
2023-03-11T07:27:36.140Z,0.30
2023-03-11T07:30:05.090Z,0.20
2023-03-11T07:32:34.176Z,0.40
2023-03-11T07:35:03.336Z,0.60
2023-03-11T07:37:31.549Z,0.60
2023-03-11T07:40:01.260Z,0.80
2023-03-11T07:42:29.952Z,0.80
2023-03-11T07:44:58.438Z,0.90
2023-03-11T07:47:26.904Z,1.00
2023-03-11T07:49:57.208Z,1.10
2023-03-11T07:52:25.572Z,1.10
2023-03-11T07:54:53.959Z,1.00
2023-03-11T07:57:23.836Z,0.90
2023-03-11T07:59:52.226Z,1.00
2023-03-11T08:02:20.589Z,1.00
2023-03-11T08:04:49.254Z,0.90
2023-03-11T08:07:17.764Z,1.20
2023-03-11T08:09:46.691Z,1.00
2023-03-11T08:12:15.165Z,0.90
2023-03-11T08:14:44.855Z,1.00
2023-03-11T08:17:13.654Z,1.10
2023-03-11T08:19:42.121Z,1.10
2023-03-11T08:22:18.315Z,1.20
2023-03-11T08:24:47.245Z,1.40
2023-03-11T08:27:16.570Z,1.30
2023-03-11T08:29:46.584Z,1.20
2023-03-11T08:32:15.919Z,1.30
2023-03-11T08:34:44.722Z,1.00
2023-03-11T08:37:13.104Z,0.90
2023-03-11T08:39:41.780Z,1.10
2023-03-11T08:42:10.161Z,1.00
2023-03-11T08:44:38.542Z,1.20
2023-03-11T08:47:08.560Z,1.00
2023-03-11T08:49:38.788Z,1.00
2023-03-11T08:52:08.072Z,0.90
2023-03-11T08:54:36.353Z,0.80
2023-03-11T08:57:04.890Z,0.90
2023-03-11T08:59:33.309Z,1.00
2023-03-11T09:02:01.751Z,1.10
2023-03-11T09:04:31.550Z,1.10
2023-03-11T09:07:00.327Z,1.00
2023-03-11T09:09:28.989Z,1.00
2023-03-11T09:11:57.473Z,0.90
2023-03-11T09:14:25.813Z,0.90
2023-03-11T09:16:54.257Z,0.90
2023-03-11T09:19:22.862Z,1.20
2023-03-11T09:21:52.670Z,1.10
2023-03-11T09:24:20.977Z,1.00
2023-03-11T09:26:49.500Z,1.10
2023-03-11T09:29:27.415Z,1.40
2023-03-11T09:31:56.023Z,1.80
2023-03-11T09:34:24.733Z,2.00
2023-03-11T09:36:55.848Z,2.30
2023-03-11T09:39:24.365Z,2.50
2023-03-11T09:41:58.728Z,2.60
2023-03-11T09:44:34.805Z,2.60
2023-03-11T09:47:37.094Z,2.60
2023-03-11T09:50:15.372Z,2.60
2023-03-11T09:52:50.658Z,2.70
2023-03-11T09:55:37.480Z,2.50
2023-03-11T09:58:19.986Z,2.50
2023-03-11T10:00:49.531Z,2.40
2023-03-11T10:03:30.191Z,2.50
2023-03-11T10:06:07.962Z,2.50
2023-03-11T10:08:44.908Z,2.30
2023-03-11T10:11:25.335Z,2.40
2023-03-11T10:14:01.521Z,2.40
2023-03-11T10:16:37.200Z,2.60
2023-03-11T10:19:15.071Z,2.70
2023-03-11T10:21:51.087Z,3.00
2023-03-11T10:24:51.393Z,3.00
2023-03-11T10:27:24.933Z,3.10
2023-03-11T10:29:59.910Z,3.30
2023-03-11T10:32:39.409Z,3.40
2023-03-11T10:35:17.583Z,3.60
2023-03-11T10:37:52.671Z,3.90
2023-03-11T10:40:30.790Z,4.00
2023-03-11T10:43:03.326Z,3.80
2023-03-11T10:45:39.062Z,4.00
2023-03-11T10:48:11.868Z,4.30
2023-03-11T10:50:47.257Z,4.30
2023-03-11T10:53:20.065Z,4.60
2023-03-11T10:55:51.744Z,4.40
2023-03-11T10:58:22.021Z,3.90
2023-03-11T11:01:02.211Z,3.90
2023-03-11T11:03:31.186Z,4.50
2023-03-11T11:06:02.280Z,4.50
2023-03-11T11:08:31.177Z,4.70
2023-03-11T11:11:03.057Z,5.10
2023-03-11T11:13:34.510Z,5.20
2023-03-11T11:16:05.629Z,4.90
2023-03-11T11:18:37.829Z,4.30
2023-03-11T11:21:08.754Z,4.00
2023-03-11T11:23:43.910Z,4.10
2023-03-11T11:26:20.551Z,3.90
2023-03-11T11:29:09.003Z,4.10
2023-03-11T11:31:38.382Z,4.40
2023-03-11T11:34:29.346Z,4.40
2023-03-11T11:36:59.626Z,4.20
2023-03-11T11:39:30.337Z,4.60
2023-03-11T11:42:02.383Z,5.70
2023-03-11T11:44:34.686Z,6.30
2023-03-11T11:47:11.806Z,6.20
2023-03-11T11:49:50.122Z,5.90
2023-03-11T11:52:21.857Z,5.80
2023-03-11T11:54:56.149Z,5.20
2023-03-11T11:57:26.272Z,5.00
2023-03-11T11:59:57.360Z,4.90
2023-03-11T12:02:41.122Z,4.80
2023-03-11T12:05:12.464Z,5.30
2023-03-11T12:07:55.709Z,4.90
2023-03-11T12:10:30.437Z,4.90
2023-03-11T12:13:29.379Z,5.30
2023-03-11T12:16:04.001Z,6.20
2023-03-11T12:18:37.550Z,6.80
2023-03-11T12:21:23.998Z,6.60
2023-03-11T12:24:07.429Z,6.00
2023-03-11T12:26:39.302Z,5.60
2023-03-11T12:29:16.174Z,5.70
2023-03-11T12:31:45.513Z,5.50
2023-03-11T12:34:17.571Z,5.20
2023-03-11T12:36:48.259Z,5.20
2023-03-11T12:39:24.960Z,5.00
2023-03-11T12:42:18.077Z,5.30
2023-03-11T12:44:49.048Z,5.60
2023-03-11T12:47:23.120Z,6.00
2023-03-11T12:49:57.346Z,5.90
2023-03-11T12:52:31.107Z,6.30
2023-03-11T12:55:32.729Z,6.70
2023-03-11T12:58:42.068Z,6.40
2023-03-11T13:01:34.003Z,5.50
2023-03-11T13:04:15.789Z,4.90
2023-03-11T13:07:13.165Z,5.30
2023-03-11T13:09:41.837Z,5.70
2023-03-11T13:12:41.571Z,6.00
2023-03-11T13:15:43.121Z,5.50
2023-03-11T13:18:25.290Z,5.30
2023-03-11T13:20:59.368Z,4.80
2023-03-11T13:23:36.846Z,4.60
2023-03-11T13:26:37.165Z,4.60
2023-03-11T13:29:44.982Z,4.90
2023-03-11T13:32:54.953Z,4.70
2023-03-11T13:35:36.763Z,4.80
2023-03-11T13:38:27.458Z,4.60
2023-03-11T13:40:56.736Z,4.50
2023-03-11T13:43:26.253Z,4.60
2023-03-11T13:45:59.293Z,4.80
2023-03-11T13:48:31.455Z,5.30
2023-03-11T13:51:06.311Z,6.00
2023-03-11T13:53:40.827Z,5.90
2023-03-11T13:56:18.805Z,6.30
2023-03-11T13:58:47.791Z,6.20
2023-03-11T14:01:18.295Z,5.50
2023-03-11T14:03:48.636Z,5.20
2023-03-11T14:06:20.567Z,5.60
2023-03-11T14:08:54.703Z,5.80
2023-03-11T14:11:27.718Z,5.80
2023-03-11T14:13:56.515Z,5.80
2023-03-11T14:16:33.554Z,5.80
2023-03-11T14:19:08.653Z,5.70
2023-03-11T14:21:38.492Z,5.60
2023-03-11T14:24:07.230Z,5.20
2023-03-11T14:26:36.684Z,4.90
2023-03-11T14:29:10.833Z,4.90
2023-03-11T14:31:40.790Z,5.20
2023-03-11T14:34:17.683Z,5.10
2023-03-11T14:36:50.961Z,5.20
2023-03-11T14:39:28.942Z,5.10
2023-03-11T14:42:02.945Z,5.00
2023-03-11T14:44:35.067Z,5.30
2023-03-11T14:47:10.686Z,5.60
2023-03-11T14:49:41.786Z,5.70
2023-03-11T14:52:18.584Z,5.90
2023-03-11T14:54:49.508Z,5.80
2023-03-11T14:57:24.321Z,5.90
2023-03-11T14:59:53.569Z,5.70
2023-03-11T15:02:42.993Z,5.20
2023-03-11T15:05:17.135Z,4.80
2023-03-11T15:07:47.504Z,4.60
2023-03-11T15:10:16.303Z,4.20
2023-03-11T15:12:46.337Z,4.10
2023-03-11T15:15:25.935Z,4.00
2023-03-11T15:17:55.753Z,3.90
2023-03-11T15:20:31.052Z,4.00
2023-03-11T15:23:02.642Z,4.20
2023-03-11T15:25:34.723Z,4.40
2023-03-11T15:28:21.812Z,4.40
2023-03-11T15:30:50.230Z,4.40
2023-03-11T15:33:23.518Z,4.40
2023-03-11T15:35:51.955Z,4.30
2023-03-11T15:38:28.245Z,4.10
2023-03-11T15:40:58.833Z,4.00
2023-03-11T15:43:30.537Z,4.00
2023-03-11T15:46:01.262Z,4.00
2023-03-11T15:48:31.330Z,4.00
2023-03-11T15:51:01.083Z,3.90
2023-03-11T15:53:33.148Z,4.10
2023-03-11T15:56:11.501Z,3.90
2023-03-11T15:58:39.983Z,3.80
2023-03-11T16:01:08.574Z,3.60
2023-03-11T16:03:39.048Z,3.60
2023-03-11T16:06:07.774Z,3.60
2023-03-11T16:08:40.496Z,3.50
2023-03-11T16:11:13.505Z,3.40
2023-03-11T16:13:41.976Z,3.20
2023-03-11T16:16:17.178Z,3.10
2023-03-11T16:18:45.960Z,3.00
2023-03-11T16:21:18.527Z,3.00
2023-03-11T16:23:52.210Z,2.90
2023-03-11T16:26:26.913Z,2.90
2023-03-11T16:28:56.450Z,2.70
2023-03-11T16:31:25.805Z,2.70
2023-03-11T16:33:54.193Z,2.50
2023-03-11T16:36:22.531Z,2.30
2023-03-11T16:38:52.061Z,2.20
2023-03-11T16:41:20.745Z,2.20
2023-03-11T16:43:49.107Z,2.20
2023-03-11T16:46:17.614Z,2.20
2023-03-11T16:48:45.986Z,2.20
2023-03-11T16:51:14.233Z,2.10
2023-03-11T16:53:42.880Z,2.10
2023-03-11T16:56:12.754Z,2.00
2023-03-11T16:58:41.127Z,1.90
2023-03-11T17:01:12.670Z,1.90
2023-03-11T17:03:43.372Z,1.90
2023-03-11T17:06:12.006Z,1.90
2023-03-11T17:08:40.398Z,1.80
2023-03-11T17:11:15.653Z,1.80
2023-03-11T17:13:44.020Z,1.80
2023-03-11T17:16:12.397Z,1.70
2023-03-11T17:18:40.751Z,1.70
2023-03-11T17:21:10.283Z,1.50
2023-03-11T17:23:39.393Z,1.30
2023-03-11T17:26:10.287Z,1.20
2023-03-11T17:28:40.983Z,1.20
2023-03-11T17:31:13.335Z,1.10
2023-03-11T17:33:42.377Z,1.10
2023-03-11T17:36:12.945Z,1.00
2023-03-11T17:38:41.512Z,1.00
2023-03-11T17:41:12.678Z,0.80
2023-03-11T17:43:42.678Z,0.80
2023-03-11T17:46:14.378Z,0.90
2023-03-11T17:48:46.430Z,0.90
2023-03-11T17:51:17.318Z,0.90
2023-03-11T17:53:47.018Z,0.80
2023-03-11T17:56:18.144Z,0.70
2023-03-11T17:58:48.785Z,0.80
2023-03-11T18:01:19.433Z,0.80
2023-03-11T18:03:48.240Z,0.90
2023-03-11T18:06:20.017Z,0.90
2023-03-11T18:08:49.213Z,0.80
2023-03-11T18:11:20.323Z,0.80
2023-03-11T18:13:50.582Z,0.90
2023-03-11T18:16:26.941Z,0.90
2023-03-11T18:18:57.312Z,0.90
2023-03-11T18:21:27.640Z,1.00
2023-03-11T18:23:57.774Z,0.90
2023-03-11T18:26:28.525Z,0.80
2023-03-11T18:29:00.324Z,0.90
2023-03-11T18:31:30.263Z,0.90
2023-03-11T18:34:00.900Z,0.80
2023-03-11T18:36:31.069Z,0.90
2023-03-11T18:39:01.528Z,0.80
2023-03-11T18:41:33.277Z,0.80
2023-03-11T18:44:04.164Z,0.80
2023-03-11T18:46:34.477Z,0.70
2023-03-11T18:49:05.692Z,0.50
2023-03-11T18:51:34.345Z,0.50
2023-03-11T18:54:03.786Z,0.50
2023-03-11T18:56:32.468Z,0.40
2023-03-11T18:59:02.747Z,0.40
2023-03-11T19:01:33.337Z,0.40
2023-03-11T19:04:05.134Z,0.50
2023-03-11T19:06:33.766Z,0.50
2023-03-11T19:09:02.372Z,0.60
2023-03-11T19:11:31.056Z,0.60
2023-03-11T19:14:00.012Z,0.60
2023-03-11T19:16:33.306Z,0.50
2023-03-11T19:19:01.727Z,0.40
2023-03-11T19:21:30.126Z,0.40
2023-03-11T19:24:00.172Z,0.50
2023-03-11T19:26:43.618Z,0.40
2023-03-11T19:29:13.760Z,0.50
2023-03-11T19:31:45.812Z,0.40
2023-03-11T19:34:14.140Z,0.40
2023-03-11T19:36:43.445Z,0.40
2023-03-11T19:39:11.759Z,0.50
2023-03-11T19:41:43.236Z,0.50
2023-03-11T19:44:11.552Z,0.60
2023-03-11T19:46:40.378Z,0.50
2023-03-11T19:49:10.334Z,0.50
2023-03-11T19:51:49.474Z,0.40
2023-03-11T19:54:19.694Z,0.40
2023-03-11T19:56:48.285Z,0.30
2023-03-11T19:59:17.319Z,0.10
2023-03-11T20:01:48.527Z,0.20
2023-03-11T20:04:18.444Z,0.10
2023-03-11T20:06:46.945Z,0.10
2023-03-11T20:09:16.213Z,0.00
2023-03-11T20:11:45.673Z,0.00
2023-03-11T20:14:14.748Z,0.00
2023-03-11T20:16:43.464Z,0.00
2023-03-11T20:19:11.853Z,0.00
2023-03-11T20:21:42.464Z,0.00
2023-03-11T20:24:12.456Z,0.00
2023-03-11T20:26:40.779Z,0.00
2023-03-11T20:29:08.972Z,0.00
2023-03-11T20:31:37.787Z,0.00
2023-03-11T20:34:06.408Z,0.00
2023-03-11T20:36:35.461Z,0.00
2023-03-11T20:39:08.634Z,0.00
2023-03-11T20:41:40.219Z,0.00
2023-03-11T20:44:12.153Z,0.10
2023-03-11T20:46:40.511Z,0.00
2023-03-11T20:49:09.295Z,0.00
2023-03-11T20:51:41.070Z,0.00
2023-03-11T20:54:12.073Z,0.00
2023-03-11T20:56:40.521Z,-0.10
2023-03-11T20:59:09.091Z,-0.20
2023-03-11T21:01:37.578Z,-0.20
2023-03-11T21:04:06.360Z,-0.30
2023-03-11T21:06:36.657Z,-0.20
2023-03-11T21:09:07.188Z,-0.20
2023-03-11T21:11:37.231Z,-0.30
2023-03-11T21:14:07.163Z,-0.20
2023-03-11T21:16:37.065Z,-0.20
2023-03-11T21:19:08.994Z,-0.20
2023-03-11T21:21:37.414Z,-0.10
2023-03-11T21:24:06.848Z,-0.20
2023-03-11T21:26:37.306Z,-0.20
2023-03-11T21:29:06.357Z,-0.20
2023-03-11T21:31:34.877Z,-0.20
2023-03-11T21:34:03.232Z,-0.20
2023-03-11T21:36:31.773Z,-0.30
2023-03-11T21:39:02.910Z,-0.30
2023-03-11T21:41:32.147Z,-0.30
2023-03-11T21:44:04.849Z,-0.40
2023-03-11T21:46:34.049Z,-0.40
2023-03-11T21:49:03.126Z,-0.40
2023-03-11T21:51:31.982Z,-0.30
2023-03-11T21:54:01.072Z,-0.30
2023-03-11T21:56:30.073Z,-0.30
2023-03-11T21:58:58.889Z,-0.30
2023-03-11T22:01:29.049Z,-0.40
2023-03-11T22:03:57.582Z,-0.40
2023-03-11T22:06:26.025Z,-0.50
2023-03-11T22:08:57.605Z,-0.40
2023-03-11T22:11:26.110Z,-0.30
2023-03-11T22:13:57.278Z,-0.20
2023-03-11T22:16:26.247Z,-0.30
2023-03-11T22:18:56.346Z,-0.20
2023-03-11T22:21:24.933Z,-0.10
2023-03-11T22:23:53.202Z,-0.20
2023-03-11T22:26:21.561Z,-0.20
2023-03-11T22:28:49.920Z,-0.30
2023-03-11T22:31:19.092Z,-0.30
2023-03-11T22:33:48.494Z,-0.40
2023-03-11T22:36:18.191Z,-0.40
2023-03-11T22:38:46.608Z,-0.40
2023-03-11T22:41:18.946Z,-0.30
2023-03-11T22:43:48.184Z,-0.20
2023-03-11T22:46:16.565Z,-0.20
2023-03-11T22:48:44.984Z,-0.20
2023-03-11T22:51:13.903Z,-0.30
2023-03-11T22:53:43.811Z,-0.30
2023-03-11T22:56:14.363Z,-0.30
2023-03-11T22:58:55.488Z,-0.30
2023-03-11T23:01:23.694Z,-0.30
2023-03-11T23:03:51.925Z,-0.30
2023-03-11T23:06:21.620Z,-0.40
2023-03-11T23:08:51.358Z,-0.30
2023-03-11T23:11:22.124Z,-0.30
2023-03-11T23:13:51.768Z,-0.40
2023-03-11T23:16:22.949Z,-0.40
2023-03-11T23:18:54.675Z,-0.40
2023-03-11T23:21:25.680Z,-0.50
2023-03-11T23:23:56.431Z,-0.40
2023-03-11T23:26:25.546Z,-0.40
2023-03-11T23:28:53.977Z,-0.40
2023-03-11T23:31:23.942Z,-0.40
2023-03-11T23:33:52.428Z,-0.40
2023-03-11T23:36:23.853Z,-0.30
2023-03-11T23:38:52.422Z,-0.30
2023-03-11T23:41:24.870Z,-0.40
2023-03-11T23:43:53.207Z,-0.40
2023-03-11T23:46:24.421Z,-0.40
2023-03-11T23:49:02.201Z,-0.50
2023-03-11T23:51:30.812Z,-0.40
2023-03-11T23:53:59.398Z,-0.50
2023-03-11T23:56:29.245Z,-0.50
2023-03-11T23:58:58.464Z,-0.40
